Главная страница
METAR-TAF:

METAR-TAF

Аэропорты :

Гибралтар, Гибралтар

широта: 36-09N, долгота: 005-21W, высота над уровнем моря: 5 м

Текущие метеонаблюдения

Эта сводка был подготовлена 28 минут назад, в 12:50 UTC
Ветер 6 Узел от восточно-северо-восточный
Температура 16°C
Влажность 68%
Давление 1027 hPa
Видимость 10 км и более
небольшая облачность на высоте 2000 фута
Рассеянная облачность на высоте 22000 фута

METAR: LXGB 171250Z 07006KT 9999 FEW020 BKN220 16/10 Q1027 NOSIG

Время: 14:18 (13:18 UTC)

Прогноз

Эта сводка был подготовлена 2 часа и 35 минут назад, в 10:43 UTC
Прогноз действительный с 17-го 12 UTC до 17-го 21 UTC
Ветер 10 Узел от восточный
Видимость 10 км и более
небольшая облачность на высоте 1800 фута
Вероятность 40% :
временами
С 17-го 13 UTC до 17-го 21 UTC
Ветер 15 Узел от восточно-северо-восточный с порывами до 25 Узел
Отдельные облака на высоте 1800 фута

TAF: LXGB 171043Z 1712/1721 09010KT 9999 FEW018 PROB40 TEMPO 1713/1721 07015G25KT SCT018

Метеонаблюдения и прогнозы для более 4000 аэропортов (сводки METAR и TAF).

Имеющиеся станции представлены на карте желтыми и красными точками.

Чтобы увидеть название станции, наведите на нее мышь.

Затем щелкните, чтобы увидеть метеонаблюдения и метеопрогнозы.

Управление картой: чтобы увеличить масштаб, щелкните зеленые кнопки с черным крестиком; чтобы уменьшить масштаб, щелкните зеленую кнопку с тире; для просмотра соседних карт щелкайте зеленые стрелки.


METAR-TAF: